Time;durP1;ratioP1;P1;durP2;ratioP2;P2;SDS_P1;SDS_P2;PMS_P1;PMS_P2;Temp;Humidity;BMP_temperature;BMP_pressure;BME280_temperature;BME280_humidity;BME280_pressure;Samples;Min_cycle;Max_cycle;Signal;HPM_P1;HPM_P2
2022/03/13 00:00:53;;;;;;;8.23;1.58;;;8.40;99.90;;;;;;5029758;28;20041;-58
2022/03/13 00:03:22;;;;;;;7.68;1.50;;;8.40;99.90;;;;;;5029359;28;20053;-57
2022/03/13 00:05:51;;;;;;;7.87;2.10;;;8.40;99.90;;;;;;5012976;28;20053;-57
2022/03/13 00:08:32;;;;;;;7.13;2.85;;;8.40;99.90;;;;;;5029408;28;20298;-57
2022/03/13 00:11:07;;;;;;;10.93;2.03;;;8.40;99.90;;;;;;5012600;28;20048;-58
2022/03/13 00:13:38;;;;;;;5.43;1.60;;;8.40;99.90;;;;;;5022704;28;20485;-57
2022/03/13 00:16:08;;;;;;;7.65;2.00;;;8.30;99.90;;;;;;5029782;28;20493;-58
2022/03/13 00:18:41;;;;;;;6.40;1.58;;;8.30;99.90;;;;;;5021544;28;20050;-58
2022/03/13 00:21:10;;;;;;;6.78;1.65;;;8.40;99.90;;;;;;5029801;28;20045;-57
2022/03/13 00:23:38;;;;;;;11.05;1.70;;;8.40;99.90;;;;;;5029959;28;20175;-57
2022/03/13 00:26:06;;;;;;;3.55;1.33;;;8.40;99.90;;;;;;5028659;28;20049;-58
2022/03/13 00:28:36;;;;;;;6.68;1.23;;;8.40;99.90;;;;;;5015752;28;20551;-58
2022/03/13 00:31:05;;;;;;;3.25;1.30;;;8.50;99.90;;;;;;5029211;28;20072;-58
2022/03/13 00:33:33;;;;;;;9.35;1.77;;;8.50;99.90;;;;;;5015400;28;20041;-58
2022/03/13 00:36:01;;;;;;;6.05;1.30;;;8.50;99.90;;;;;;5013968;28;20397;-59
2022/03/13 00:38:29;;;;;;;5.97;1.58;;;8.60;99.90;;;;;;5014331;28;20389;-58
2022/03/13 00:40:58;;;;;;;5.80;1.45;;;8.60;99.90;;;;;;5028722;28;20044;-59
2022/03/13 00:43:29;;;;;;;6.97;1.43;;;8.60;99.90;;;;;;5018901;28;20056;-58
2022/03/13 00:45:57;;;;;;;5.63;1.40;;;8.60;99.90;;;;;;5015707;28;20057;-58
2022/03/13 00:48:27;;;;;;;6.65;1.58;;;8.70;99.90;;;;;;5028917;28;20038;-57
2022/03/13 00:50:55;;;;;;;5.60;1.60;;;8.60;99.90;;;;;;5014795;28;20053;-57
2022/03/13 00:53:22;;;;;;;2.83;1.50;;;8.70;99.90;;;;;;5029872;28;20056;-57
2022/03/13 00:55:51;;;;;;;7.50;1.83;;;8.70;99.90;;;;;;5028831;28;20049;-57
2022/03/13 00:58:19;;;;;;;7.60;1.60;;;8.70;99.90;;;;;;5024617;28;20053;-57
2022/03/13 01:00:47;;;;;;;5.28;1.80;;;8.70;99.90;;;;;;5027665;28;20034;-58
2022/03/13 01:03:37;;;;;;;6.90;1.45;;;8.70;99.90;;;;;;5017451;28;20077;-58
2022/03/13 01:06:05;;;;;;;3.08;1.15;;;8.60;99.90;;;;;;5007027;28;20046;-58
2022/03/13 01:08:34;;;;;;;10.18;2.40;;;8.60;99.90;;;;;;5017451;28;20382;-57
2022/03/13 01:11:04;;;;;;;5.55;1.80;;;8.60;99.90;;;;;;5026014;28;20498;-57
2022/03/13 01:13:32;;;;;;;4.35;1.58;;;8.60;99.90;;;;;;5009263;28;20045;-58
2022/03/13 01:16:10;;;;;;;6.60;1.15;;;8.60;99.90;;;;;;5029100;28;20041;-58
2022/03/13 01:18:40;;;;;;;7.55;1.67;;;8.50;99.90;;;;;;5028721;28;20084;-58
2022/03/13 01:21:09;;;;;;;5.65;1.73;;;8.50;99.90;;;;;;5022802;28;20057;-58
2022/03/13 01:23:39;;;;;;;7.38;2.50;;;8.40;99.90;;;;;;5028204;28;20381;-58
2022/03/13 01:26:22;;;;;;;6.10;1.75;;;8.40;99.90;;;;;;5028871;28;20045;-58
2022/03/13 01:28:51;;;;;;;13.50;2.67;;;8.30;99.90;;;;;;5027954;28;20049;-57
2022/03/13 01:31:27;;;;;;;18.88;4.20;;;8.30;99.90;;;;;;5019966;28;20358;-58
2022/03/13 01:33:57;;;;;;;10.50;2.28;;;8.20;99.90;;;;;;5028284;28;20061;-58
2022/03/13 01:36:25;;;;;;;5.63;1.83;;;8.10;99.90;;;;;;5009992;28;20070;-59
2022/03/13 01:38:55;;;;;;;9.85;1.90;;;8.00;99.90;;;;;;5028499;28;20061;-59
2022/03/13 01:41:23;;;;;;;;;;;7.90;99.90;;;;;;5011942;28;20041;-58
2022/03/13 01:43:51;;;;;;;6.25;1.20;;;7.80;99.90;;;;;;5025105;28;19923;-58
2022/03/13 01:46:18;;;;;;;3.10;1.02;;;7.70;99.90;;;;;;5028158;28;20049;-58
2022/03/13 01:49:07;;;;;;;4.15;0.77;;;7.60;99.90;;;;;;5028096;28;20060;-58
2022/03/13 01:51:35;;;;;;;2.58;0.93;;;7.50;99.90;;;;;;5024788;28;20045;-58
2022/03/13 01:54:06;;;;;;;;;;;7.50;99.90;;;;;;5018525;28;20046;-58
2022/03/13 01:56:35;;;;;;;0.55;0.30;;;7.40;99.90;;;;;;5028062;28;19925;-58
2022/03/13 01:59:06;;;;;;;6.23;0.67;;;7.30;99.90;;;;;;5028546;28;20053;-58
2022/03/13 02:01:35;;;;;;;4.45;0.52;;;7.20;99.90;;;;;;5028472;28;20433;-59
2022/03/13 02:04:03;;;;;;;2.17;0.82;;;7.20;99.90;;;;;;5027713;28;20052;-59
2022/03/13 02:06:33;;;;;;;3.60;0.70;;;7.10;99.90;;;;;;5028065;28;20052;-60
2022/03/13 02:09:02;;;;;;;1.05;0.30;;;7.10;99.90;;;;;;5010618;28;20049;-59
2022/03/13 02:11:39;;;;;;;0.30;0.30;;;7.10;99.90;;;;;;5027298;28;20064;-59
2022/03/13 02:14:10;;;;;;;2.90;0.70;;;7.10;99.90;;;;;;5023764;28;20060;-59
2022/03/13 02:16:38;;;;;;;2.88;0.50;;;7.10;99.90;;;;;;5027476;28;20053;-60
2022/03/13 02:19:09;;;;;;;2.15;0.85;;;7.00;99.90;;;;;;5028087;28;20057;-59
2022/03/13 02:21:41;;;;;;;4.13;0.90;;;7.00;99.90;;;;;;5027987;28;20041;-59
2022/03/13 02:24:13;;;;;;;4.72;0.80;;;7.10;99.90;;;;;;5027518;28;20054;-59
2022/03/13 02:26:43;;;;;;;1.73;0.60;;;7.10;99.90;;;;;;5027454;28;20045;-59
2022/03/13 02:29:14;;;;;;;0.57;0.32;;;7.00;99.90;;;;;;5010581;28;20042;-59
2022/03/13 02:31:42;;;;;;;7.15;1.00;;;7.00;99.90;;;;;;5020565;28;20508;-59
2022/03/13 02:34:15;;;;;;;2.75;0.70;;;7.10;99.90;;;;;;5031216;28;20049;-59
2022/03/13 02:36:43;;;;;;;3.28;0.60;;;7.10;99.90;;;;;;5030735;28;20060;-60
2022/03/13 02:39:11;;;;;;;3.75;1.20;;;7.10;99.90;;;;;;5030526;28;20057;-59
2022/03/13 02:41:41;;;;;;;1.67;0.40;;;7.10;99.90;;;;;;5031162;28;20053;-59
2022/03/13 02:44:10;;;;;;;2.85;0.68;;;7.10;99.90;;;;;;5028011;28;20046;-59
2022/03/13 02:47:03;;;;;;;1.65;0.60;;;7.10;99.90;;;;;;5028487;28;20041;-59
2022/03/13 02:49:32;;;;;;;1.48;0.75;;;7.10;99.90;;;;;;5029853;28;20045;-59
2022/03/13 02:52:04;;;;;;;2.30;0.70;;;7.10;99.90;;;;;;5030463;28;20041;-59
2022/03/13 02:54:32;;;;;;;2.03;0.98;;;7.10;99.90;;;;;;5011722;28;20058;-59
2022/03/13 02:57:01;;;;;;;5.97;1.38;;;7.10;99.90;;;;;;5021018;28;20053;-59
2022/03/13 02:59:29;;;;;;;3.08;1.98;;;7.10;99.90;;;;;;5033678;28;20048;-59
2022/03/13 03:01:57;;;;;;;5.90;2.28;;;7.20;99.90;;;;;;5029583;28;20400;-59
2022/03/13 03:04:25;;;;;;;6.90;2.70;;;7.20;99.90;;;;;;5021961;28;20053;-58
2022/03/13 03:07:01;;;;;;;9.10;3.10;;;7.20;99.90;;;;;;5020748;28;20046;-59
2022/03/13 03:09:31;;;;;;;8.45;3.85;;;7.20;99.90;;;;;;5034429;28;20048;-59
2022/03/13 03:12:01;;;;;;;11.70;3.92;;;7.20;99.90;;;;;;5013020;28;20046;-59
2022/03/13 03:14:30;;;;;;;7.60;3.38;;;7.30;99.90;;;;;;5031476;28;20056;-59
2022/03/13 03:16:58;;;;;;;5.97;3.95;;;7.30;99.90;;;;;;5018114;28;20037;-59
2022/03/13 03:19:27;;;;;;;11.98;3.25;;;7.30;99.90;;;;;;5034866;28;20056;-59
2022/03/13 03:21:54;;;;;;;7.30;4.20;;;7.40;99.90;;;;;;5033883;28;20057;-59
2022/03/13 03:24:24;;;;;;;6.22;3.60;;;7.40;99.90;;;;;;5034862;28;20041;-59
2022/03/13 03:26:55;;;;;;;5.95;3.45;;;7.40;99.90;;;;;;5034642;28;20523;-59
2022/03/13 03:29:25;;;;;;;4.43;3.22;;;7.50;99.90;;;;;;5029877;28;20057;-58
2022/03/13 03:31:54;;;;;;;4.65;2.90;;;7.40;99.90;;;;;;5034105;28;20053;-58
2022/03/13 03:34:24;;;;;;;5.38;2.90;;;7.50;99.90;;;;;;5034424;28;20058;-58
2022/03/13 03:37:02;;;;;;;6.55;3.55;;;7.50;99.90;;;;;;5034060;28;20075;-58
2022/03/13 03:39:32;;;;;;;6.05;2.88;;;7.60;99.90;;;;;;5033796;28;20041;-58
2022/03/13 03:42:02;;;;;;;;;;;7.50;99.90;;;;;;5034829;28;20046;-58
2022/03/13 03:44:30;;;;;;;5.43;3.13;;;7.50;99.90;;;;;;5022682;28;20299;-59
2022/03/13 03:46:57;;;;;;;6.40;3.38;;;7.60;99.90;;;;;;5034200;28;20052;-59
2022/03/13 03:49:25;;;;;;;8.30;4.90;;;7.50;99.90;;;;;;5033431;28;20049;-58
2022/03/13 03:51:53;;;;;;;4.70;3.47;;;7.50;99.90;;;;;;5033864;28;20041;-58
2022/03/13 03:54:21;;;;;;;6.18;3.78;;;7.50;99.90;;;;;;5034231;28;20042;-59
2022/03/13 03:56:48;;;;;;;6.78;3.63;;;7.50;99.90;;;;;;5033602;28;20412;-59
2022/03/13 03:59:19;;;;;;;10.23;4.88;;;7.50;99.90;;;;;;5031951;28;20057;-59
2022/03/13 04:01:46;;;;;;;8.20;4.20;;;7.50;99.90;;;;;;5033685;28;20041;-58
2022/03/13 04:04:17;;;;;;;7.50;4.22;;;7.40;99.90;;;;;;5016441;28;20045;-58
2022/03/13 04:06:45;;;;;;;9.73;4.07;;;7.40;99.90;;;;;;5025552;28;20053;-58
2022/03/13 04:09:13;;;;;;;8.93;4.05;;;7.40;99.90;;;;;;5033094;28;20041;-58
2022/03/13 04:11:43;;;;;;;7.97;2.80;;;7.40;99.90;;;;;;5033478;28;20049;-59
2022/03/13 04:14:11;;;;;;;4.93;3.13;;;7.30;99.90;;;;;;5030588;28;20045;-58
2022/03/13 04:16:39;;;;;;;3.95;2.30;;;7.30;99.90;;;;;;5032838;28;20049;-60
2022/03/13 04:19:09;;;;;;;4.50;2.85;;;7.30;99.90;;;;;;5033491;28;20056;-59
2022/03/13 04:21:42;;;;;;;3.90;2.25;;;7.30;99.90;;;;;;5033317;28;20049;-60
2022/03/13 04:24:11;;;;;;;6.47;2.13;;;7.30;99.90;;;;;;5018264;28;20401;-59
2022/03/13 04:26:40;;;;;;;4.40;1.85;;;7.30;99.90;;;;;;5030896;28;20041;-60
2022/03/13 04:29:09;;;;;;;3.85;2.10;;;7.30;99.90;;;;;;5033316;28;20053;-58
2022/03/13 04:31:41;;;;;;;4.68;1.90;;;7.30;99.90;;;;;;5033418;28;20045;-58
2022/03/13 04:34:15;;;;;;;3.45;1.50;;;7.30;99.90;;;;;;5032184;28;20060;-58
2022/03/13 04:36:44;;;;;;;2.20;1.60;;;7.30;99.90;;;;;;5032724;28;20704;-58
2022/03/13 04:39:12;;;;;;;5.00;1.73;;;7.30;99.90;;;;;;5032193;28;20042;-58
2022/03/13 04:41:40;;;;;;;4.57;1.50;;;7.30;99.90;;;;;;5031994;28;20049;-58
2022/03/13 04:44:09;;;;;;;1.98;1.50;;;7.30;99.90;;;;;;5033114;28;20048;-59
2022/03/13 04:46:37;;;;;;;3.38;1.20;;;7.30;99.90;;;;;;5032791;28;20041;-59
2022/03/13 04:49:05;;;;;;;2.20;1.30;;;7.30;99.90;;;;;;5031080;28;20045;-59
2022/03/13 04:51:34;;;;;;;4.63;1.23;;;7.30;99.90;;;;;;5014682;28;20042;-59
2022/03/13 04:54:01;;;;;;;4.45;1.20;;;7.30;99.90;;;;;;5032970;28;20045;-59
2022/03/13 04:56:29;;;;;;;2.75;1.48;;;7.30;99.90;;;;;;5032646;28;20489;-59
2022/03/13 04:58:57;;;;;;;4.75;1.27;;;7.40;99.90;;;;;;5032574;28;20065;-59
2022/03/13 05:01:24;;;;;;;1.38;1.27;;;7.40;99.90;;;;;;5032780;28;20034;-59
2022/03/13 05:03:53;;;;;;;5.95;1.45;;;7.40;99.90;;;;;;5032743;28;20057;-59
2022/03/13 05:06:21;;;;;;;2.03;1.40;;;7.40;99.90;;;;;;5032787;28;20610;-59
2022/03/13 05:08:49;;;;;;;2.50;1.67;;;7.40;99.90;;;;;;5032682;28;20038;-59
2022/03/13 05:11:17;;;;;;;5.30;1.85;;;7.40;99.90;;;;;;5032305;28;20060;-59
2022/03/13 05:13:45;;;;;;;2.20;1.80;;;7.40;99.90;;;;;;5019151;28;20382;-59
2022/03/13 05:16:13;;;;;;;4.07;2.15;;;7.40;99.90;;;;;;5015116;28;20041;-59
2022/03/13 05:18:41;;;;;;;3.60;2.13;;;7.40;99.90;;;;;;5014974;28;20401;-60
2022/03/13 05:21:08;;;;;;;4.05;2.25;;;7.40;99.90;;;;;;5030736;28;20048;-58
2022/03/13 05:23:36;;;;;;;5.07;2.60;;;7.40;99.90;;;;;;5032148;28;20053;-58
2022/03/13 05:26:03;;;;;;;4.47;1.98;;;7.30;99.90;;;;;;5032492;28;20048;-58
2022/03/13 05:28:32;;;;;;;5.70;2.90;;;7.30;99.90;;;;;;5032178;28;20056;-59
2022/03/13 05:31:00;;;;;;;6.15;2.58;;;7.30;99.90;;;;;;5031981;28;20057;-58
2022/03/13 05:33:30;;;;;;;4.50;2.80;;;7.30;99.90;;;;;;5031822;28;20057;-58
2022/03/13 05:35:59;;;;;;;7.32;2.90;;;7.30;99.90;;;;;;5032351;28;20042;-59
2022/03/13 05:38:27;;;;;;;4.90;3.30;;;7.30;99.90;;;;;;5031966;28;20045;-58
2022/03/13 05:40:55;;;;;;;6.88;3.88;;;7.40;99.90;;;;;;5032102;28;20045;-59
2022/03/13 05:43:22;;;;;;;5.70;3.90;;;7.30;99.90;;;;;;5031765;28;20393;-59
2022/03/13 05:45:53;;;;;;;4.45;3.40;;;7.40;99.90;;;;;;5032347;28;20400;-59
2022/03/13 05:48:21;;;;;;;7.97;4.40;;;7.40;99.90;;;;;;4999486;28;20049;-59
2022/03/13 05:50:49;;;;;;;6.30;2.67;;;7.40;99.90;;;;;;5024086;28;20042;-59
2022/03/13 05:53:17;;;;;;;4.50;2.83;;;7.40;99.90;;;;;;5028527;28;20056;-58
2022/03/13 05:55:44;;;;;;;5.97;3.10;;;7.40;99.90;;;;;;5028065;28;20053;-59
2022/03/13 05:58:13;;;;;;;5.40;2.47;;;7.40;99.90;;;;;;5028154;28;20627;-58
2022/03/13 06:00:40;;;;;;;5.40;2.58;;;7.40;99.90;;;;;;5028148;28;20053;-59
2022/03/13 06:03:09;;;;;;;3.90;2.40;;;7.40;99.90;;;;;;5015595;28;20536;-59
2022/03/13 06:05:37;;;;;;;3.63;1.90;;;7.40;99.90;;;;;;5025239;28;20057;-59
2022/03/13 06:08:04;;;;;;;3.70;1.70;;;7.40;99.90;;;;;;5025834;28;20045;-58
2022/03/13 06:10:32;;;;;;;3.55;1.92;;;7.40;99.90;;;;;;5028630;28;20053;-59
2022/03/13 06:13:00;;;;;;;2.22;1.70;;;7.40;99.90;;;;;;5024447;28;20057;-59
2022/03/13 06:15:29;;;;;;;3.22;1.67;;;7.20;99.90;;;;;;5019874;28;20057;-59
2022/03/13 06:17:58;;;;;;;2.78;1.48;;;7.50;99.90;;;;;;5016013;28;20486;-58
2022/03/13 06:20:26;;;;;;;2.75;1.30;;;7.50;99.90;;;;;;5024834;28;20069;-59
2022/03/13 06:22:54;;;;;;;5.60;1.75;;;7.50;99.90;;;;;;5024052;28;20508;-59
2022/03/13 06:25:22;;;;;;;2.80;1.45;;;7.50;99.90;;;;;;5024373;28;20056;-59
2022/03/13 06:27:50;;;;;;;2.25;1.40;;;7.50;99.90;;;;;;5023706;28;20156;-59
2022/03/13 06:30:19;;;;;;;5.07;1.38;;;7.50;99.90;;;;;;5022364;28;20049;-59
2022/03/13 06:32:49;;;;;;;3.38;1.50;;;7.50;99.90;;;;;;5015353;28;20049;-59
2022/03/13 06:35:21;;;;;;;2.83;1.63;;;7.50;99.90;;;;;;5027904;28;20057;-59
2022/03/13 06:37:49;;;;;;;;;;;7.50;99.90;;;;;;5027908;28;20056;-59
2022/03/13 06:40:19;;;;;;;1.60;1.15;;;7.50;99.90;;;;;;5009590;28;19929;-59
2022/03/13 06:42:51;;;;;;;1.67;1.13;;;7.50;99.90;;;;;;5024982;28;20049;-58
2022/03/13 06:45:22;;;;;;;7.63;1.40;;;7.50;99.90;;;;;;5012508;28;20053;-59
2022/03/13 06:47:50;;;;;;;2.10;1.10;;;7.40;99.90;;;;;;5022563;28;20042;-59
2022/03/13 06:50:20;;;;;;;2.70;1.40;;;7.40;99.90;;;;;;5010662;28;20393;-59
2022/03/13 06:52:50;;;;;;;3.55;1.40;;;7.40;99.90;;;;;;5025039;28;20389;-60
2022/03/13 06:55:20;;;;;;;3.42;1.35;;;7.40;99.90;;;;;;5018641;28;20046;-59
2022/03/13 06:57:49;;;;;;;3.42;1.40;;;7.40;99.90;;;;;;5027502;28;20053;-59
2022/03/13 07:00:18;;;;;;;3.70;1.33;;;7.40;99.90;;;;;;5026499;28;20050;-59
2022/03/13 07:02:49;;;;;;;4.20;1.13;;;7.40;99.90;;;;;;5021067;28;20046;-59
2022/03/13 07:05:19;;;;;;;2.47;1.00;;;7.40;99.90;;;;;;5023591;28;20544;-59
2022/03/13 07:07:47;;;;;;;12.00;1.20;;;7.40;99.90;;;;;;5001793;28;20042;-59
2022/03/13 07:10:15;;;;;;;2.17;1.13;;;7.40;99.90;;;;;;5026612;28;20436;-59
2022/03/13 07:12:46;;;;;;;1.92;1.42;;;7.40;99.90;;;;;;5022876;28;20041;-59
2022/03/13 07:15:14;;;;;;;3.17;1.30;;;7.40;99.90;;;;;;5027590;28;20045;-59
2022/03/13 07:17:44;;;;;;;3.20;1.65;;;7.40;99.90;;;;;;5022627;28;20037;-59
2022/03/13 07:20:12;;;;;;;1.60;1.50;;;7.40;99.90;;;;;;5026917;28;20057;-59
2022/03/13 07:22:42;;;;;;;4.95;1.30;;;7.50;99.90;;;;;;5026416;28;20295;-61
2022/03/13 07:25:11;;;;;;;1.33;1.10;;;7.50;99.90;;;;;;5026160;28;20049;-58
2022/03/13 07:27:39;;;;;;;2.88;2.22;;;7.40;99.90;;;;;;5027076;28;20061;-58
2022/03/13 07:30:12;;;;;;;4.43;1.00;;;7.40;99.90;;;;;;5025367;28;20068;-58
2022/03/13 07:32:43;;;;;;;1.77;1.30;;;7.50;99.90;;;;;;5025600;28;20045;-58
2022/03/13 07:35:12;;;;;;;2.22;1.33;;;7.50;99.90;;;;;;4994680;28;20073;-58
2022/03/13 07:37:43;;;;;;;2.75;1.30;;;7.50;99.90;;;;;;5001909;28;20065;-58
2022/03/13 07:40:12;;;;;;;4.30;1.40;;;7.50;99.90;;;;;;5027111;28;20053;-58
2022/03/13 07:42:39;;;;;;;3.25;1.73;;;7.60;99.90;;;;;;5026931;28;20046;-58
2022/03/13 07:45:10;;;;;;;;;;;7.60;99.90;;;;;;5015157;28;20037;-58
2022/03/13 07:47:38;;;;;;;5.20;1.20;;;7.60;99.90;;;;;;5013203;28;19932;-59
2022/03/13 07:50:06;;;;;;;4.63;1.23;;;7.60;99.90;;;;;;5028020;28;20053;-59
2022/03/13 07:52:34;;;;;;;3.58;1.15;;;7.70;99.90;;;;;;5030578;28;20552;-59
2022/03/13 07:55:02;;;;;;;3.35;0.80;;;7.70;99.90;;;;;;5030999;28;20045;-59
2022/03/13 07:57:30;;;;;;;2.05;0.90;;;7.80;99.90;;;;;;5022553;28;20050;-59
2022/03/13 07:59:58;;;;;;;1.92;0.52;;;7.80;99.90;;;;;;5029029;28;20045;-60
2022/03/13 08:02:26;;;;;;;1.80;0.88;;;7.80;99.90;;;;;;5024591;28;20060;-59
2022/03/13 08:04:54;;;;;;;3.63;1.73;;;7.90;99.90;;;;;;5017879;28;20229;-59
2022/03/13 08:07:22;;;;;;;2.75;0.68;;;7.90;99.90;;;;;;5028445;28;20492;-59
2022/03/13 08:09:51;;;;;;;2.58;0.90;;;8.00;99.90;;;;;;5029895;28;20046;-58
2022/03/13 08:12:18;;;;;;;4.50;0.77;;;8.00;99.90;;;;;;5029722;28;20049;-58
2022/03/13 08:14:46;;;;;;;4.10;0.95;;;8.10;99.90;;;;;;5029678;28;20046;-59
2022/03/13 08:17:15;;;;;;;3.92;1.10;;;8.20;99.90;;;;;;5030127;28;20041;-62
2022/03/13 08:19:43;;;;;;;0.93;0.60;;;8.30;99.90;;;;;;5028268;28;20041;-59
2022/03/13 08:22:11;;;;;;;3.90;0.85;;;8.40;99.90;;;;;;4996635;28;20056;-59
2022/03/13 08:24:39;;;;;;;1.13;0.65;;;8.40;99.90;;;;;;5028725;28;20497;-59
2022/03/13 08:27:06;;;;;;;4.45;0.95;;;8.50;99.90;;;;;;5028712;28;20038;-59
2022/03/13 08:29:34;;;;;;;2.67;0.65;;;8.50;99.90;;;;;;5029792;28;20053;-58
2022/03/13 08:32:02;;;;;;;2.05;0.50;;;8.50;99.90;;;;;;5029733;28;20053;-59
2022/03/13 08:34:30;;;;;;;9.25;1.13;;;8.50;99.90;;;;;;5010242;28;20392;-58
2022/03/13 08:37:03;;;;;;;7.07;1.33;;;8.50;99.90;;;;;;5029027;28;20053;-58
2022/03/13 08:39:31;;;;;;;4.30;1.05;;;8.50;99.90;;;;;;5028329;28;20516;-58
2022/03/13 08:41:59;;;;;;;5.75;1.13;;;8.60;99.90;;;;;;5029155;28;20048;-58
2022/03/13 08:44:26;;;;;;;4.57;1.25;;;8.60;99.90;;;;;;5029010;28;20068;-58
2022/03/13 08:46:54;;;;;;;4.13;1.20;;;8.60;99.90;;;;;;5028279;28;20520;-59
2022/03/13 08:49:22;;;;;;;2.65;1.00;;;8.60;99.90;;;;;;5019780;28;20054;-58
2022/03/13 08:51:50;;;;;;;10.55;1.23;;;8.60;99.90;;;;;;5016615;28;20425;-59
2022/03/13 08:54:20;;;;;;;;;;;8.70;99.90;;;;;;5028621;28;20034;-59
2022/03/13 08:56:48;;;;;;;4.97;1.20;;;8.80;99.90;;;;;;5027729;28;19925;-59
2022/03/13 08:59:20;;;;;;;3.75;0.98;;;8.90;99.90;;;;;;5029411;28;20052;-58
2022/03/13 09:01:52;;;;;;;9.13;0.98;;;9.00;99.90;;;;;;5025727;28;20049;-58
2022/03/13 09:04:20;;;;;;;5.32;1.40;;;9.10;99.90;;;;;;5021980;28;20493;-58
2022/03/13 09:06:49;;;;;;;4.97;1.23;;;9.10;99.90;;;;;;5029191;28;20048;-58
2022/03/13 09:09:19;;;;;;;12.60;1.17;;;9.20;99.90;;;;;;5028368;28;20053;-57
2022/03/13 09:11:48;;;;;;;8.95;1.20;;;9.30;99.90;;;;;;5027163;28;20492;-58
2022/03/13 09:14:16;;;;;;;6.95;2.03;;;9.40;99.90;;;;;;5028536;28;20041;-58
2022/03/13 09:16:45;;;;;;;7.35;1.88;;;9.40;99.90;;;;;;5028422;28;20107;-58
2022/03/13 09:19:14;;;;;;;12.93;2.30;;;9.40;99.90;;;;;;5022970;28;20050;-59
2022/03/13 09:21:41;;;;;;;7.18;1.45;;;9.50;99.90;;;;;;5027469;28;20048;-59
2022/03/13 09:24:10;;;;;;;8.43;1.45;;;9.50;99.90;;;;;;5027735;28;20492;-59
2022/03/13 09:26:43;;;;;;;9.90;1.60;;;9.60;99.90;;;;;;5024657;28;20400;-59
2022/03/13 09:29:11;;;;;;;7.13;1.00;;;9.60;99.90;;;;;;5028525;28;20041;-59
2022/03/13 09:31:39;;;;;;;10.00;1.42;;;9.60;99.90;;;;;;5028920;28;20053;-58
2022/03/13 09:34:07;;;;;;;7.78;1.33;;;9.70;99.90;;;;;;5024369;28;20046;-58
2022/03/13 09:36:36;;;;;;;11.80;1.48;;;9.70;99.90;;;;;;5018347;28;20053;-59
2022/03/13 09:39:05;;;;;;;15.35;1.92;;;9.80;99.90;;;;;;5024598;28;20056;-58
2022/03/13 09:41:34;;;;;;;;;;;9.90;99.90;;;;;;5027150;28;20052;-58
2022/03/13 09:44:02;;;;;;;9.52;1.83;;;9.90;99.90;;;;;;5028721;28;19928;-58
2022/03/13 09:46:29;;;;;;;7.78;1.67;;;9.90;99.90;;;;;;5028517;28;20068;-58
2022/03/13 09:48:58;;;;;;;9.48;1.50;;;10.00;99.90;;;;;;5025999;28;20473;-58
2022/03/13 09:51:26;;;;;;;9.65;2.30;;;10.10;99.90;;;;;;5027318;28;20034;-58
2022/03/13 09:53:54;;;;;;;14.35;2.90;;;10.10;99.90;;;;;;5028263;28;20393;-58
2022/03/13 09:56:22;;;;;;;8.45;1.42;;;10.20;99.90;;;;;;5025212;28;20045;-59
2022/03/13 09:58:50;;;;;;;8.80;1.58;;;10.30;99.90;;;;;;5028051;28;20049;-58
2022/03/13 10:01:18;;;;;;;13.82;2.55;;;10.40;99.90;;;;;;5027811;28;20068;-58
2022/03/13 10:03:46;;;;;;;10.00;1.67;;;10.40;99.90;;;;;;5023892;28;20053;-58
2022/03/13 10:06:13;;;;;;;14.45;1.83;;;10.40;99.90;;;;;;5017158;28;20440;-58
2022/03/13 10:08:42;;;;;;;16.23;4.10;;;10.40;99.90;;;;;;5027874;28;20040;-58
2022/03/13 10:11:10;;;;;;;17.00;2.65;;;10.40;99.90;;;;;;5028422;28;20053;-58
2022/03/13 10:13:47;;;;;;;13.95;2.30;;;10.40;99.90;;;;;;5027498;28;20045;-59
2022/03/13 10:16:22;;;;;;;16.90;1.92;;;10.40;99.90;;;;;;5012837;28;20050;-58
2022/03/13 10:18:50;;;;;;;12.00;2.30;;;10.50;99.90;;;;;;5028106;28;20053;-58
2022/03/13 10:21:18;;;;;;;12.70;2.22;;;10.50;99.90;;;;;;5026802;28;20053;-58
2022/03/13 10:23:47;;;;;;;13.07;1.95;;;10.50;99.90;;;;;;5027198;28;20045;-58
2022/03/13 10:26:17;;;;;;;17.05;2.25;;;10.50;99.90;;;;;;5027678;28;20413;-58
2022/03/13 10:28:45;;;;;;;14.35;1.95;;;10.50;99.90;;;;;;5027442;28;20049;-58
2022/03/13 10:31:17;;;;;;;13.55;1.88;;;10.50;99.90;;;;;;5025290;28;20061;-59
2022/03/13 10:33:55;;;;;;;15.05;1.88;;;10.50;99.90;;;;;;5022073;28;20492;-58
2022/03/13 10:36:31;;;;;;;16.85;3.08;;;10.50;99.90;;;;;;5008622;28;20420;-59
2022/03/13 10:39:02;;;;;;;12.30;2.42;;;10.50;99.90;;;;;;5025609;28;20056;-59
2022/03/13 10:41:42;;;;;;;11.60;2.03;;;10.50;99.90;;;;;;5026472;28;20453;-58
2022/03/13 10:44:31;;;;;;;14.05;1.95;;;10.60;99.90;;;;;;5025862;28;20050;-58
2022/03/13 10:47:05;;;;;;;14.35;2.17;;;10.60;99.90;;;;;;5018878;28;20393;-58
2022/03/13 10:49:40;;;;;;;8.00;1.23;;;10.70;99.90;;;;;;5004789;28;20412;-59
2022/03/13 10:52:25;;;;;;;13.75;1.40;;;10.70;99.90;;;;;;5026055;28;20068;-59
2022/03/13 10:54:54;;;;;;;15.82;2.22;;;10.70;99.90;;;;;;5021183;28;20129;-58
2022/03/13 10:57:22;;;;;;;14.38;2.35;;;10.80;99.90;;;;;;5024254;28;20378;-58
2022/03/13 11:00:14;;;;;;;12.93;2.00;;;10.90;99.90;;;;;;5025935;28;20068;-58
2022/03/13 11:02:42;;;;;;;11.20;1.50;;;11.00;99.90;;;;;;5020986;28;20382;-57
2022/03/13 11:05:10;;;;;;;14.05;2.20;;;11.10;99.90;;;;;;5010542;28;20056;-57
2022/03/13 11:07:38;;;;;;;11.43;1.98;;;11.10;99.90;;;;;;5019386;28;20064;-57
2022/03/13 11:10:07;;;;;;;16.70;3.20;;;11.10;99.90;;;;;;5022368;28;20046;-58
2022/03/13 11:12:36;;;;;;;12.93;2.25;;;11.10;99.90;;;;;;5019865;28;20038;-57
2022/03/13 11:15:06;;;;;;;11.23;2.40;;;11.20;99.90;;;;;;5001274;28;20053;-57
2022/03/13 11:17:34;;;;;;;6.28;2.03;;;11.30;99.90;;;;;;5000023;28;20481;-58
2022/03/13 11:20:05;;;;;;;14.50;1.83;;;11.40;99.90;;;;;;5017296;28;20488;-57
2022/03/13 11:22:33;;;;;;;14.50;2.10;;;11.50;99.90;;;;;;5020609;28;20049;-58
2022/03/13 11:25:04;;;;;;;18.80;1.77;;;11.60;99.90;;;;;;5012104;28;20061;-57
2022/03/13 11:27:34;;;;;;;11.45;1.80;;;11.70;99.90;;;;;;5014514;28;20049;-57
2022/03/13 11:30:03;;;;;;;10.85;1.38;;;11.80;99.90;;;;;;5023303;28;20401;-57
2022/03/13 11:32:41;;;;;;;16.80;2.22;;;12.00;99.90;;;;;;5015652;28;20065;-58
2022/03/13 11:35:18;;;;;;;16.23;1.80;;;12.00;99.90;;;;;;4996440;28;20045;-58
2022/03/13 11:37:49;;;;;;;11.27;1.58;;;12.00;99.90;;;;;;5021587;28;20038;-58
2022/03/13 11:40:28;;;;;;;15.13;2.75;;;12.00;99.90;;;;;;5020461;28;20042;-58
2022/03/13 11:43:06;;;;;;;11.95;1.50;;;12.00;99.90;;;;;;5019451;28;20053;-58
2022/03/13 11:45:36;;;;;;;8.07;2.03;;;12.10;99.90;;;;;;5021845;28;20056;-58
2022/03/13 11:48:21;;;;;;;7.03;1.98;;;12.10;99.90;;;;;;5003969;28;20057;-58
2022/03/13 11:51:01;;;;;;;18.23;2.53;;;12.10;99.90;;;;;;5020121;28;20046;-58
2022/03/13 11:53:49;;;;;;;12.70;1.67;;;12.10;99.90;;;;;;5025474;28;20071;-58
2022/03/13 11:56:29;;;;;;;14.48;1.70;;;12.10;99.90;;;;;;5026433;28;20045;-57
2022/03/13 11:59:20;;;;;;;15.77;3.70;;;12.10;99.90;;;;;;5029460;28;20057;-58
2022/03/13 12:01:49;;;;;;;9.93;1.55;;;12.00;99.90;;;;;;5017800;28;20053;-58
2022/03/13 12:04:17;;;;;;;9.13;1.65;;;12.00;99.90;;;;;;5016073;28;20049;-59
2022/03/13 12:07:24;;;;;;;13.45;1.92;;;12.00;99.90;;;;;;5024785;28;20072;-58
2022/03/13 12:09:52;;;;;;;16.33;2.08;;;11.90;99.90;;;;;;4986366;28;20049;-57
2022/03/13 12:12:20;;;;;;;15.48;2.58;;;12.00;99.90;;;;;;5013035;28;20046;-58
2022/03/13 12:15:03;;;;;;;14.90;1.73;;;12.00;99.90;;;;;;5030809;28;20049;-59
2022/03/13 12:17:45;;;;;;;10.52;2.00;;;12.00;99.90;;;;;;5012745;28;20054;-59
2022/03/13 12:20:25;;;;;;;13.10;1.55;;;11.90;99.90;;;;;;5010821;28;20046;-59
2022/03/13 12:22:54;;;;;;;;;;;12.00;99.90;;;;;;5017427;28;20056;-59
2022/03/13 12:25:24;;;;;;;13.38;1.95;;;12.10;99.90;;;;;;5030540;28;19940;-59
2022/03/13 12:27:52;;;;;;;7.05;1.52;;;12.40;99.90;;;;;;5030249;28;20048;-58
2022/03/13 12:30:29;;;;;;;7.68;1.50;;;12.60;99.90;;;;;;5030036;28;20061;-57
2022/03/13 12:33:04;;;;;;;10.98;1.65;;;12.60;99.90;;;;;;5027261;28;20038;-57
2022/03/13 12:35:56;;;;;;;10.48;1.35;;;12.50;99.90;;;;;;5010511;28;20486;-57
2022/03/13 12:38:32;;;;;;;9.45;1.58;;;12.50;99.90;;;;;;5019936;28;20078;-58
2022/03/13 12:41:07;;;;;;;11.57;1.45;;;12.60;99.90;;;;;;5012898;28;20505;-57
2022/03/13 12:43:52;;;;;;;14.82;1.75;;;12.50;99.90;;;;;;5012590;28;20060;-57
2022/03/13 12:46:23;;;;;;;15.68;1.85;;;12.40;99.90;;;;;;5030233;28;20053;-58
2022/03/13 12:49:02;;;;;;;9.40;1.75;;;12.30;99.90;;;;;;5019835;28;20054;-57
2022/03/13 12:51:31;;;;;;;10.93;1.73;;;12.20;99.90;;;;;;4992852;28;20057;-58
2022/03/13 12:53:59;;;;;;;10.80;1.42;;;12.10;99.90;;;;;;5025465;28;20616;-58
2022/03/13 12:56:29;;;;;;;10.15;1.20;;;12.10;99.90;;;;;;5012386;28;20056;-58
2022/03/13 12:58:58;;;;;;;11.80;1.67;;;12.20;99.90;;;;;;5029563;28;20420;-59
2022/03/13 13:01:25;;;;;;;18.60;2.58;;;12.20;99.90;;;;;;5029643;28;20041;-59
2022/03/13 13:03:59;;;;;;;12.95;2.08;;;12.20;99.90;;;;;;5008406;28;20058;-58
2022/03/13 13:06:28;;;;;;;8.45;1.92;;;12.10;99.90;;;;;;5009868;28;20049;-59
2022/03/13 13:08:56;;;;;;;7.20;1.10;;;12.20;99.90;;;;;;5023605;28;20064;-59